Time;durP1;ratioP1;P1;durP2;ratioP2;P2;SDS_P1;SDS_P2;PMS_P1;PMS_P2;Temp;Humidity;BMP_temperature;BMP_pressure;BME280_temperature;BME280_humidity;BME280_pressure;Samples;Min_cycle;Max_cycle;Signal;HPM_P1;HPM_P2
2023/08/12 00:00:11;;;;;;;9.97;8.93;;;;;;;26.40;74.43;98871.59;4921885;28;104588;-63
2023/08/12 00:02:43;;;;;;;7.55;6.85;;;;;;;27.21;70.80;98869.47;4903293;28;103719;-63
2023/08/12 00:05:12;;;;;;;6.90;6.20;;;;;;;27.66;68.20;98859.53;4920905;28;104159;-62
2023/08/12 00:07:41;;;;;;;7.20;6.53;;;;;;;27.49;69.10;98861.91;4927010;28;102737;-63
2023/08/12 00:10:13;;;;;;;6.03;5.53;;;;;;;27.66;67.82;98857.66;4921186;28;104164;-63
2023/08/12 00:12:42;;;;;;;6.20;5.70;;;;;;;27.68;66.75;98854.75;4922645;28;103047;-63
2023/08/12 00:15:11;;;;;;;6.60;5.95;;;;;;;27.57;68.41;98858.94;4921392;28;103456;-62
2023/08/12 00:17:41;;;;;;;7.72;6.93;;;;;;;27.07;70.35;98860.53;4924600;28;102945;-62
2023/08/12 00:20:12;;;;;;;6.82;6.22;;;;;;;27.06;71.57;98851.56;4922728;28;102847;-63
2023/08/12 00:22:41;;;;;;;7.68;6.88;;;;;;;26.99;71.27;98848.03;4918994;28;103430;-62
2023/08/12 00:25:09;;;;;;;6.97;6.38;;;;;;;26.50;74.46;98850.34;4918888;28;103308;-63
2023/08/12 00:27:38;;;;;;;7.63;6.93;;;;;;;26.66;74.17;98836.41;4921905;28;103345;-63
2023/08/12 00:30:08;;;;;;;7.70;7.00;;;;;;;26.54;73.12;98838.06;4922177;28;104052;-62
2023/08/12 00:32:36;;;;;;;6.20;5.70;;;;;;;26.80;73.32;98838.09;4922634;28;103844;-63
2023/08/12 00:35:06;;;;;;;8.18;7.47;;;;;;;26.40;75.25;98833.69;4902501;28;103303;-63
2023/08/12 00:37:34;;;;;;;7.80;7.10;;;;;;;26.41;74.84;98836.19;4922552;28;102701;-62
2023/08/12 00:40:02;;;;;;;6.68;6.07;;;;;;;26.63;74.33;98831.41;4911993;28;104091;-62
2023/08/12 00:42:31;;;;;;;6.30;5.80;;;;;;;26.44;75.00;98832.25;4898653;28;104266;-62
2023/08/12 00:45:03;;;;;;;6.73;6.03;;;;;;;26.64;73.15;98824.91;4916241;28;103214;-62
2023/08/12 00:47:31;;;;;;;7.35;6.75;;;;;;;26.48;74.48;98830.78;4916366;28;102734;-62
2023/08/12 00:50:00;;;;;;;8.48;7.68;;;;;;;25.28;80.57;98833.38;4914030;28;104215;-62
2023/08/12 00:52:28;;;;;;;7.97;7.27;;;;;;;24.86;83.33;98830.00;4918634;28;104279;-62
2023/08/12 00:54:59;;;;;;;5.50;5.10;;;;;;;26.06;78.39;98825.72;4918474;28;103210;-62
2023/08/12 00:57:27;;;;;;;7.27;6.43;;;;;;;26.47;74.93;98815.56;4907998;28;103204;-62
2023/08/12 00:59:56;;;;;;;6.47;5.95;;;;;;;26.73;73.03;98814.69;4919734;28;104223;-62
2023/08/12 01:02:26;;;;;;;7.00;6.30;;;;;;;26.82;71.85;98821.59;4913862;28;104280;-63
2023/08/12 01:04:54;;;;;;;8.85;8.05;;;;;;;26.45;74.22;98814.94;4900986;28;103256;-63
2023/08/12 01:07:24;;;;;;;10.90;9.80;;;;;;;26.21;75.19;98823.69;4903021;28;102814;-62
2023/08/12 01:09:52;;;;;;;9.30;8.40;;;;;;;25.07;80.50;98819.09;4900550;28;104218;-62
2023/08/12 01:12:28;;;;;;;9.13;8.10;;;;;;;24.35;84.98;98822.13;4918398;28;103278;-62
2023/08/12 01:15:02;;;;;;;7.37;6.77;;;;;;;25.04;83.81;98814.13;4914296;28;104034;-62
2023/08/12 01:17:32;;;;;;;7.17;6.57;;;;;;;25.74;79.40;98817.31;4913695;28;102836;-62
2023/08/12 01:20:02;;;;;;;7.43;6.72;;;;;;;25.72;78.65;98814.00;4917292;28;102994;-62
2023/08/12 01:22:33;;;;;;;7.78;7.13;;;;;;;25.43;80.14;98811.59;4914593;28;103446;-62
2023/08/12 01:25:02;;;;;;;6.43;5.83;;;;;;;25.73;79.07;98810.25;4919618;28;103325;-62
2023/08/12 01:27:30;;;;;;;6.60;6.00;;;;;;;26.20;76.30;98797.66;4914585;28;103200;-62
2023/08/12 01:29:59;;;;;;;5.90;5.40;;;;;;;26.49;74.16;98794.53;4915426;28;103766;-62
2023/08/12 01:32:40;;;;;;;6.85;6.25;;;;;;;26.35;74.08;98795.56;4913350;28;104240;-62
2023/08/12 01:35:18;;;;;;;6.05;5.50;;;;;;;26.66;72.21;98795.75;4896788;28;104368;-62
2023/08/12 01:37:48;;;;;;;7.93;6.65;;;;;;;26.12;75.12;98797.81;4913337;28;103069;-62
2023/08/12 01:40:19;;;;;;;8.10;7.40;;;;;;;24.78;81.46;98794.00;4891753;28;104162;-62
2023/08/12 01:42:49;;;;;;;8.13;7.40;;;;;;;25.07;81.96;98792.06;4912400;28;103410;-62
2023/08/12 01:45:16;;;;;;;9.25;7.53;;;;;;;25.26;80.55;98791.34;4912884;28;103340;-61
2023/08/12 01:47:45;;;;;;;6.80;6.20;;;;;;;25.62;79.14;98789.22;4896069;28;102872;-61
2023/08/12 01:50:13;;;;;;;8.38;7.65;;;;;;;25.04;81.35;98787.91;4895725;28;102745;-61
2023/08/12 01:52:44;;;;;;;8.00;7.22;;;;;;;25.29;80.38;98783.66;4911306;28;103271;-62
2023/08/12 01:55:14;;;;;;;8.85;7.60;;;;;;;24.91;81.82;98790.56;4893642;28;104979;-61
2023/08/12 01:57:43;;;;;;;7.65;6.85;;;;;;;25.45;79.17;98787.03;4908485;28;102938;-62
2023/08/12 02:00:12;;;;;;;6.15;5.65;;;;;;;26.06;76.15;98777.00;4917235;28;103874;-62
2023/08/12 02:02:47;;;;;;;8.05;6.53;;;;;;;25.68;77.22;98785.69;4914649;28;104198;-61
2023/08/12 02:05:15;;;;;;;5.95;5.45;;;;;;;26.19;75.39;98777.03;4901785;28;103979;-61
2023/08/12 02:07:44;;;;;;;6.83;6.17;;;;;;;26.15;74.78;98784.75;4918607;28;102894;-62
2023/08/12 02:10:14;;;;;;;6.82;6.22;;;;;;;26.04;75.19;98785.34;4916868;28;104383;-62
2023/08/12 02:12:43;;;;;;;6.17;5.67;;;;;;;26.25;74.91;98781.59;4915734;28;103950;-62
2023/08/12 02:15:12;;;;;;;7.07;6.38;;;;;;;25.90;76.85;98784.50;4916980;28;103272;-62
2023/08/12 02:17:40;;;;;;;7.40;6.70;;;;;;;25.54;78.26;98783.16;4899529;28;102693;-62
2023/08/12 02:20:08;;;;;;;7.13;6.53;;;;;;;25.37;79.07;98782.66;4920302;28;104338;-62
2023/08/12 02:22:39;;;;;;;5.63;5.22;;;;;;;26.08;76.68;98770.31;4911157;28;103881;-61
2023/08/12 02:25:07;;;;;;;5.50;5.10;;;;;;;26.34;75.50;98769.53;4918549;28;103210;-61
2023/08/12 02:27:35;;;;;;;5.70;5.20;;;;;;;26.49;74.01;98770.16;4900954;28;103022;-61
2023/08/12 02:30:06;;;;;;;5.70;5.22;;;;;;;26.63;72.76;98774.50;4902456;28;103772;-61
2023/08/12 02:32:34;;;;;;;5.60;5.15;;;;;;;26.66;72.76;98765.94;4901314;28;104330;-62
2023/08/12 02:35:05;;;;;;;5.88;5.38;;;;;;;26.74;73.01;98760.31;4909586;28;104254;-62
2023/08/12 02:37:35;;;;;;;6.93;6.28;;;;;;;26.69;72.98;98760.13;4896264;28;102834;-62
2023/08/12 02:40:04;;;;;;;5.93;5.43;;;;;;;26.51;73.80;98757.22;4919758;28;102904;-61
2023/08/12 02:42:32;;;;;;;6.77;6.17;;;;;;;26.50;74.44;98758.25;4893400;28;104256;-62
2023/08/12 02:45:01;;;;;;;7.90;7.10;;;;;;;25.45;78.81;98762.72;4889570;28;104384;-61
2023/08/12 02:47:31;;;;;;;7.43;6.75;;;;;;;25.71;78.17;98758.22;4908128;28;102798;-61
2023/08/12 02:49:59;;;;;;;5.55;5.05;;;;;;;26.38;75.21;98759.94;4900255;28;103091;-61
2023/08/12 02:52:27;;;;;;;5.72;5.22;;;;;;;26.55;74.23;98754.94;4903685;28;104560;-61
2023/08/12 02:54:57;;;;;;;9.10;6.82;;;;;;;26.14;75.61;98757.84;4918736;28;104268;-61
2023/08/12 02:57:25;;;;;;;6.32;5.72;;;;;;;26.39;73.85;98764.31;4916103;28;102750;-61
2023/08/12 02:59:53;;;;;;;6.63;5.40;;;;;;;26.79;73.02;98760.53;4919758;28;104149;-62
2023/08/12 03:02:21;;;;;;;6.93;5.75;;;;;;;26.82;72.03;98757.38;4915545;28;104047;-61
2023/08/12 03:04:52;;;;;;;5.10;4.60;;;;;;;26.94;71.11;98755.69;4914270;28;104305;-62
2023/08/12 03:07:20;;;;;;;5.07;4.57;;;;;;;27.09;70.26;98751.88;4914596;28;102939;-61
2023/08/12 03:09:48;;;;;;;6.18;5.57;;;;;;;27.12;70.20;98756.88;4890942;28;103569;-61
2023/08/12 03:12:16;;;;;;;5.88;5.28;;;;;;;27.13;70.55;98747.69;4912095;28;103950;-61
2023/08/12 03:14:44;;;;;;;5.28;4.82;;;;;;;27.17;70.72;98738.91;4908764;28;103310;-61
2023/08/12 03:17:13;;;;;;;6.17;5.57;;;;;;;27.23;70.03;98750.78;4894720;28;102804;-61
2023/08/12 03:19:41;;;;;;;5.65;5.18;;;;;;;27.18;70.31;98750.56;4911703;28;103087;-61
2023/08/12 03:22:11;;;;;;;5.45;5.05;;;;;;;27.17;69.97;98744.34;4895523;28;104269;-61
2023/08/12 03:24:40;;;;;;;5.27;4.83;;;;;;;27.18;69.87;98751.41;4886636;28;104311;-61
2023/08/12 03:27:08;;;;;;;5.05;4.65;;;;;;;27.26;69.81;98743.03;4895471;28;102787;-61
2023/08/12 03:29:38;;;;;;;5.68;5.18;;;;;;;27.19;70.19;98746.81;4896525;28;103150;-61
2023/08/12 03:32:06;;;;;;;4.75;4.32;;;;;;;27.30;69.44;98738.00;4913056;28;106088;-61
2023/08/12 03:34:35;;;;;;;6.73;5.87;;;;;;;26.77;72.51;98731.94;4894781;28;105791;-61
2023/08/12 03:37:04;;;;;;;4.93;4.47;;;;;;;27.13;70.94;98734.97;4920063;28;102944;-61
2023/08/12 03:39:34;;;;;;;5.55;5.05;;;;;;;27.19;70.70;98741.41;4906176;28;104372;-61
2023/08/12 03:42:02;;;;;;;6.57;5.90;;;;;;;27.10;70.84;98739.97;4914684;28;103251;-61
2023/08/12 03:44:32;;;;;;;5.93;5.20;;;;;;;26.96;72.22;98744.63;4914122;28;103278;-61
2023/08/12 03:47:00;;;;;;;4.80;4.32;;;;;;;27.22;70.17;98749.13;4901497;28;102736;-61
2023/08/12 03:49:30;;;;;;;5.03;4.60;;;;;;;27.21;71.69;98744.72;4899501;28;104076;-61
2023/08/12 03:51:58;;;;;;;5.82;5.32;;;;;;;26.98;72.30;98740.66;4911369;28;104388;-62
2023/08/12 03:54:26;;;;;;;6.43;5.82;;;;;;;26.70;73.66;98740.09;4896737;28;103444;-61
2023/08/12 03:56:55;;;;;;;5.73;4.73;;;;;;;27.04;72.05;98739.78;4899520;28;102965;-61
2023/08/12 03:59:24;;;;;;;5.78;4.82;;;;;;;27.22;70.37;98746.41;4899766;28;102980;-61
2023/08/12 04:01:52;;;;;;;4.63;4.22;;;;;;;27.36;69.48;98742.56;4910043;28;104329;-61
2023/08/12 04:04:22;;;;;;;4.90;4.35;;;;;;;27.44;68.93;98745.06;4898296;28;103191;-61
2023/08/12 04:06:51;;;;;;;5.15;4.75;;;;;;;27.49;69.36;98751.50;4895483;28;102780;-61
2023/08/12 04:09:21;;;;;;;6.38;5.78;;;;;;;27.09;71.08;98752.69;4896088;28;104029;-61
2023/08/12 04:11:49;;;;;;;5.90;5.40;;;;;;;27.13;71.34;98758.53;4899579;28;104349;-61
2023/08/12 04:14:19;;;;;;;5.78;5.20;;;;;;;26.96;72.61;98769.84;4918534;28;103747;-61
2023/08/12 04:16:47;;;;;;;6.65;5.15;;;;;;;27.32;71.08;98757.59;4898237;28;102770;-60
2023/08/12 04:19:17;;;;;;;6.00;5.50;;;;;;;26.63;74.59;98758.25;4920250;28;104175;-61
2023/08/12 04:21:46;;;;;;;6.35;5.70;;;;;;;26.80;73.53;98770.31;4918945;28;104421;-61
2023/08/12 04:24:14;;;;;;;4.75;4.35;;;;;;;27.17;71.17;98765.19;4906745;28;103114;-61
2023/08/12 04:26:44;;;;;;;5.97;5.38;;;;;;;27.20;71.25;98770.19;4918761;28;102879;-61
2023/08/12 04:29:12;;;;;;;4.40;4.00;;;;;;;27.27;70.81;98758.25;4919761;28;104108;-62
2023/08/12 04:31:43;;;;;;;4.88;4.47;;;;;;;27.33;70.35;98764.69;4901865;28;104177;-61
2023/08/12 04:34:12;;;;;;;4.90;4.50;;;;;;;27.42;70.28;98763.44;4904487;28;104160;-61
2023/08/12 04:36:43;;;;;;;4.97;4.57;;;;;;;27.53;70.19;98768.19;4903096;28;102706;-62
2023/08/12 04:39:15;;;;;;;5.25;4.85;;;;;;;27.59;69.68;98770.03;4901937;28;102784;-61
2023/08/12 04:41:44;;;;;;;4.97;4.57;;;;;;;27.56;70.13;98768.59;4901289;28;104210;-61
2023/08/12 04:44:13;;;;;;;5.60;5.10;;;;;;;27.64;70.25;98772.91;4903834;28;105094;-61
2023/08/12 04:46:43;;;;;;;5.50;5.00;;;;;;;27.54;70.71;98775.25;4898429;28;102713;-61
2023/08/12 04:49:11;;;;;;;6.90;6.28;;;;;;;25.81;78.57;98763.22;4901917;28;103831;-61
2023/08/12 04:51:39;;;;;;;7.90;6.97;;;;;;;25.22;83.07;98763.03;4917598;28;103566;-59
2023/08/12 04:54:07;;;;;;;5.70;5.20;;;;;;;26.47;77.36;98764.13;4917498;28;103433;-59
2023/08/12 04:56:35;;;;;;;6.27;5.67;;;;;;;27.01;73.98;98774.63;4898440;28;102982;-59
2023/08/12 04:59:04;;;;;;;6.82;6.18;;;;;;;26.96;73.67;98777.16;4897249;28;104074;-59
2023/08/12 05:01:32;;;;;;;5.93;5.43;;;;;;;27.16;73.50;98763.53;4900816;28;105595;-59
2023/08/12 05:04:01;;;;;;;7.90;7.10;;;;;;;25.64;80.09;98762.78;4919138;28;103675;-59
2023/08/12 05:06:29;;;;;;;5.57;5.17;;;;;;;26.68;75.68;98763.00;4896172;28;102824;-59
2023/08/12 05:08:58;;;;;;;5.10;4.40;;;;;;;27.18;72.80;98766.84;4902122;28;102794;-59
2023/08/12 05:11:27;;;;;;;6.40;5.80;;;;;;;27.29;72.18;98763.47;4901787;28;104222;-59
2023/08/12 05:13:56;;;;;;;8.13;6.90;;;;;;;25.82;80.42;98768.44;4897801;28;105491;-59
2023/08/12 05:16:24;;;;;;;7.33;6.63;;;;;;;25.56;82.76;98771.09;4914659;28;105405;-59
2023/08/12 05:18:52;;;;;;;6.20;5.70;;;;;;;26.64;78.27;98770.72;4899031;28;103534;-59
2023/08/12 05:21:22;;;;;;;6.40;5.80;;;;;;;26.93;76.69;98762.16;4897901;28;104275;-59
2023/08/12 05:23:51;;;;;;;8.00;7.30;;;;;;;25.45;82.16;98752.72;4920054;28;104173;-59
2023/08/12 05:26:20;;;;;;;8.07;7.28;;;;;;;25.33;86.89;98743.53;4915021;28;103014;-59
2023/08/12 05:28:48;;;;;;;7.15;6.25;;;;;;;26.57;81.80;98748.25;4919025;28;103980;-59
2023/08/12 05:31:15;;;;;;;6.13;5.63;;;;;;;27.06;78.62;98756.66;4918030;28;104042;-59
2023/08/12 05:33:43;;;;;;;6.32;5.82;;;;;;;27.31;77.21;98774.94;4918906;28;103412;-59
2023/08/12 05:36:11;;;;;;;6.80;6.20;;;;;;;26.97;79.13;98787.78;4898211;28;103090;-58
2023/08/12 05:38:40;;;;;;;6.72;6.18;;;;;;;26.81;79.96;98785.53;4915459;28;103745;-59
2023/08/12 05:41:08;;;;;;;7.70;7.00;;;;;;;26.74;79.75;98773.84;4918597;28;104299;-59
2023/08/12 05:43:36;;;;;;;7.10;6.45;;;;;;;27.07;77.93;98776.47;4918308;28;103341;-59
2023/08/12 05:46:04;;;;;;;7.50;6.90;;;;;;;26.24;81.93;98771.84;4893229;28;105000;-59
2023/08/12 05:48:32;;;;;;;8.10;7.30;;;;;;;25.07;89.15;98768.59;4915460;28;103698;-59
2023/08/12 05:51:02;;;;;;;8.27;7.43;;;;;;;25.49;89.77;98762.13;4915446;28;103283;-59
2023/08/12 05:53:30;;;;;;;7.33;6.73;;;;;;;25.66;88.27;98755.28;4918261;28;103440;-59
2023/08/12 05:55:59;;;;;;;4.95;4.55;;;;;;;26.87;83.16;98745.91;4915630;28;102917;-59
2023/08/12 05:58:28;;;;;;;7.13;6.43;;;;;;;26.87;81.23;98754.88;4914538;28;102674;-58
2023/08/12 06:01:00;;;;;;;7.60;6.90;;;;;;;26.34;83.55;98758.69;4915019;28;103258;-59
2023/08/12 06:03:28;;;;;;;6.13;5.47;;;;;;;27.13;81.53;98763.94;4910487;28;103520;-58
2023/08/12 06:05:56;;;;;;;5.40;5.00;;;;;;;27.54;80.13;98780.69;4913543;28;102832;-58
2023/08/12 06:08:24;;;;;;;6.33;5.83;;;;;;;27.26;78.95;98791.00;4918103;28;102927;-59
2023/08/12 06:10:52;;;;;;;5.13;4.72;;;;;;;27.45;78.29;98787.44;4915180;28;104318;-59
2023/08/12 06:13:23;;;;;;;5.88;5.43;;;;;;;27.54;78.53;98767.94;4915848;28;103299;-58
2023/08/12 06:15:51;;;;;;;6.90;6.22;;;;;;;27.40;79.61;98752.75;4906940;28;102743;-59
2023/08/12 06:18:19;;;;;;;5.93;5.43;;;;;;;27.63;78.88;98760.38;4923706;28;102864;-60
2023/08/12 06:20:48;;;;;;;6.73;6.13;;;;;;;27.28;80.10;98746.38;4923306;28;104304;-60
2023/08/12 06:23:17;;;;;;;5.13;4.72;;;;;;;27.80;79.51;98745.25;4919886;28;103276;-59
2023/08/12 06:25:45;;;;;;;6.40;5.85;;;;;;;27.50;79.51;98738.78;4920423;28;102952;-59
2023/08/12 06:28:13;;;;;;;6.05;5.45;;;;;;;27.40;80.44;98732.94;4924568;28;103038;-60
2023/08/12 06:30:45;;;;;;;5.77;5.37;;;;;;;27.26;80.12;98740.31;4916548;28;104131;-60
2023/08/12 06:33:13;;;;;;;7.40;6.70;;;;;;;26.03;82.69;98744.91;4916156;28;103253;-60
2023/08/12 06:35:42;;;;;;;6.20;5.60;;;;;;;27.24;79.67;98742.41;4912423;28;103012;-60
2023/08/12 06:38:10;;;;;;;6.40;5.80;;;;;;;27.67;78.18;98744.50;4918798;28;102810;-60
2023/08/12 06:40:41;;;;;;;5.43;5.03;;;;;;;28.09;76.67;98744.66;4920710;28;104059;-60
2023/08/12 06:43:10;;;;;;;7.43;6.07;;;;;;;27.90;77.58;98748.28;4920587;28;104927;-60
2023/08/12 06:45:38;;;;;;;7.25;6.55;;;;;;;28.07;77.20;98741.31;4903625;28;102893;-60
2023/08/12 06:48:08;;;;;;;6.35;5.47;;;;;;;28.25;75.70;98747.84;4919491;28;103958;-61
2023/08/12 06:50:36;;;;;;;7.18;5.60;;;;;;;28.48;74.87;98745.34;4918939;28;103646;-60
2023/08/12 06:53:07;;;;;;;5.43;4.93;;;;;;;28.77;73.46;98760.97;4922084;28;103280;-60
2023/08/12 06:55:35;;;;;;;5.50;4.72;;;;;;;28.90;72.86;98755.38;4923893;28;102956;-60
2023/08/12 06:58:04;;;;;;;6.13;5.33;;;;;;;29.09;70.75;98759.75;4921041;28;102898;-60
2023/08/12 07:00:34;;;;;;;6.63;5.70;;;;;;;28.81;70.89;98754.00;4914377;28;103277;-60
2023/08/12 07:03:02;;;;;;;4.83;4.10;;;;;;;29.43;69.53;98762.91;4899725;28;103341;-61
2023/08/12 07:05:32;;;;;;;5.60;5.15;;;;;;;28.85;73.12;98757.09;4904189;28;103021;-60
2023/08/12 07:08:01;;;;;;;5.37;4.87;;;;;;;29.26;70.90;98755.38;4918980;28;103743;-61
2023/08/12 07:10:35;;;;;;;5.00;4.18;;;;;;;29.74;67.42;98759.94;4903283;28;105000;-61
2023/08/12 07:13:03;;;;;;;6.15;5.55;;;;;;;29.08;70.71;98766.22;4917958;28;103351;-61
2023/08/12 07:15:33;;;;;;;5.22;4.82;;;;;;;29.45;68.41;98755.31;4916020;28;102621;-61
2023/08/12 07:18:15;;;;;;;4.93;4.53;;;;;;;29.36;69.61;98751.28;4917102;28;104318;-59
2023/08/12 07:20:46;;;;;;;6.85;5.68;;;;;;;28.46;73.90;98750.16;4918309;28;103482;-60
2023/08/12 07:23:14;;;;;;;5.90;5.40;;;;;;;29.60;70.81;98758.47;4920486;28;102990;-61
2023/08/12 07:25:42;;;;;;;7.70;5.65;;;;;;;29.19;71.97;98756.50;4914223;28;102707;-61
2023/08/12 07:28:10;;;;;;;6.22;5.63;;;;;;;28.69;71.92;98761.22;4900546;28;102993;-59
2023/08/12 07:30:40;;;;;;;7.03;5.80;;;;;;;28.71;72.76;98759.16;4917732;28;103262;-59
2023/08/12 07:33:08;;;;;;;6.43;5.40;;;;;;;29.61;69.87;98766.44;4916455;28;103082;-59
2023/08/12 07:35:39;;;;;;;7.57;6.38;;;;;;;28.61;73.08;98764.22;4918812;28;102566;-59
2023/08/12 07:38:08;;;;;;;8.32;6.43;;;;;;;28.89;73.48;98756.41;4914602;28;103990;-59
2023/08/12 07:40:40;;;;;;;8.00;6.10;;;;;;;29.43;71.01;98757.47;4917391;28;103292;-59
2023/08/12 07:43:09;;;;;;;6.90;6.22;;;;;;;29.29;69.08;98751.38;4920771;28;103142;-61
2023/08/12 07:45:38;;;;;;;6.22;5.63;;;;;;;29.84;69.21;98754.78;4920334;28;102621;-61
2023/08/12 07:48:06;;;;;;;5.43;4.40;;;;;;;31.31;65.16;98746.28;4926775;28;104274;-61
2023/08/12 07:50:36;;;;;;;4.20;3.90;;;;;;;32.47;61.71;98755.78;4919218;28;104501;-59
2023/08/12 07:53:04;;;;;;;4.07;3.78;;;;;;;32.75;58.67;98752.09;4921910;28;104129;-61
2023/08/12 07:55:35;;;;;;;5.97;4.68;;;;;;;33.17;59.23;98747.78;4907203;28;103237;-58
2023/08/12 07:58:04;;;;;;;6.38;5.30;;;;;;;32.38;58.75;98760.81;4915464;28;102703;-61
2023/08/12 08:00:33;;;;;;;5.15;4.65;;;;;;;32.84;59.41;98743.22;4923555;28;103079;-61
2023/08/12 08:03:01;;;;;;;5.40;4.70;;;;;;;32.68;58.03;98742.16;4915222;28;103255;-59
2023/08/12 08:05:30;;;;;;;5.65;4.63;;;;;;;32.84;56.61;98745.13;4921253;28;102867;-58
2023/08/12 08:07:58;;;;;;;4.50;4.20;;;;;;;33.66;53.31;98749.47;4922381;28;104009;-58
2023/08/12 08:10:26;;;;;;;5.97;5.15;;;;;;;33.14;55.03;98751.03;4920695;28;104169;-61
2023/08/12 08:12:56;;;;;;;4.75;4.35;;;;;;;34.18;54.26;98741.50;4917367;28;103114;-57
2023/08/12 08:15:24;;;;;;;5.80;4.80;;;;;;;32.99;56.24;98734.38;4918264;28;102731;-58
2023/08/12 08:17:52;;;;;;;55.08;33.17;;;;;;;34.55;54.20;98738.75;4920645;28;103118;-67
2023/08/12 08:20:22;;;;;;;13.18;10.13;;;;;;;35.51;51.43;98733.78;4923479;28;103565;-64
2023/08/12 08:22:50;;;;;;;6.37;5.43;;;;;;;34.43;52.20;98737.28;4921044;28;103319;-68
2023/08/12 08:25:19;;;;;;;6.17;5.57;;;;;;;35.36;49.67;98725.47;4919856;28;103344;-57
2023/08/12 08:27:47;;;;;;;6.18;5.32;;;;;;;32.24;57.24;98723.97;4921369;28;102902;-66
2023/08/12 08:30:16;;;;;;;5.05;4.65;;;;;;;33.95;53.18;98732.75;4904475;28;104939;-57
2023/08/12 08:32:46;;;;;;;6.97;5.03;;;;;;;32.66;55.34;98738.88;4918091;28;103180;-57
2023/08/12 08:35:15;;;;;;;5.10;4.60;;;;;;;33.54;53.84;98731.50;4916709;28;102614;-57
2023/08/12 08:37:43;;;;;;;5.45;4.97;;;;;;;33.53;54.26;98733.41;4909571;28;103192;-66
2023/08/12 08:40:12;;;;;;;4.37;4.03;;;;;;;34.54;52.44;98731.59;4921179;28;103204;-63
2023/08/12 08:42:41;;;;;;;5.50;4.82;;;;;;;33.85;50.28;98735.41;4916842;28;103537;-57
2023/08/12 08:45:14;;;;;;;4.32;4.03;;;;;;;34.84;50.42;98728.25;4924246;28;102888;-58
2023/08/12 08:47:44;;;;;;;4.40;4.00;;;;;;;36.68;46.03;98743.78;4919848;28;102896;-66
2023/08/12 08:50:16;;;;;;;5.30;4.85;;;;;;;36.78;46.04;98738.25;4922151;28;103329;-57
2023/08/12 08:52:45;;;;;;;4.85;4.43;;;;;;;37.53;44.32;98741.88;4923362;28;103150;-59
2023/08/12 08:55:19;;;;;;;5.30;4.80;;;;;;;37.46;43.79;98741.34;4903978;28;102915;-58
2023/08/12 08:57:50;;;;;;;12.25;5.00;;;;;;;38.27;42.80;98736.94;4919442;28;102841;-65
2023/08/12 09:00:21;;;;;;;5.72;5.20;;;;;;;35.53;47.08;98737.06;4922110;28;104418;-64
2023/08/12 09:02:54;;;;;;;6.23;4.77;;;;;;;35.67;49.87;98732.72;4900875;28;103246;-67
2023/08/12 09:05:33;;;;;;;5.53;5.03;;;;;;;33.49;51.75;98736.94;4918484;28;103018;-60
2023/08/12 09:08:10;;;;;;;5.88;4.93;;;;;;;34.97;49.80;98718.72;4921253;28;102894;-63
2023/08/12 09:10:40;;;;;;;5.30;4.80;;;;;;;35.66;49.32;98719.25;4920900;28;103520;-59
2023/08/12 09:13:09;;;;;;;5.13;4.73;;;;;;;34.19;53.38;98720.41;4916021;28;103287;-68
2023/08/12 09:15:37;;;;;;;4.40;4.10;;;;;;;37.47;46.52;98719.03;4919919;28;103119;-68
2023/08/12 09:18:09;;;;;;;4.60;4.30;;;;;;;37.82;45.05;98731.72;4920265;28;104161;-59
2023/08/12 09:20:38;;;;;;;5.40;4.97;;;;;;;36.26;47.33;98724.00;4916702;28;103054;-68
2023/08/12 09:23:08;;;;;;;4.22;3.90;;;;;;;37.88;44.06;98727.88;4921419;28;104602;-68
2023/08/12 09:25:37;;;;;;;4.40;4.10;;;;;;;39.17;40.93;98728.84;4921571;28;102982;-58
2023/08/12 09:28:06;;;;;;;5.43;4.95;;;;;;;38.95;41.09;98712.00;4922697;28;103220;-59
2023/08/12 09:30:37;;;;;;;4.80;4.40;;;;;;;40.02;39.98;98725.19;4922514;28;103071;-68
2023/08/12 09:33:09;;;;;;;5.00;4.60;;;;;;;39.07;42.15;98720.69;4914699;28;103325;-68
2023/08/12 09:35:41;;;;;;;5.10;4.70;;;;;;;37.55;45.34;98720.34;4919975;28;103022;-69
2023/08/12 09:38:13;;;;;;;4.68;4.28;;;;;;;39.32;40.74;98709.34;4921994;28;103804;-68
2023/08/12 09:40:47;;;;;;;4.75;4.25;;;;;;;39.06;42.49;98709.91;4921240;28;104583;-69
2023/08/12 09:43:16;;;;;;;5.47;4.77;;;;;;;39.61;40.72;98703.66;4917847;28;103196;-68
2023/08/12 09:45:46;;;;;;;5.00;4.60;;;;;;;38.98;40.37;98705.88;4917708;28;102791;-68
2023/08/12 09:48:17;;;;;;;4.68;4.15;;;;;;;39.58;39.68;98689.63;4900514;28;104110;-68
2023/08/12 09:50:48;;;;;;;4.20;3.90;;;;;;;39.81;39.47;98691.50;4921318;28;104314;-60
2023/08/12 09:53:18;;;;;;;4.63;4.23;;;;;;;38.34;42.29;98688.91;4916113;28;103238;-60
2023/08/12 09:55:48;;;;;;;4.55;4.15;;;;;;;38.56;41.88;98680.94;4902184;28;102903;-59
2023/08/12 09:58:22;;;;;;;4.20;3.80;;;;;;;39.71;39.98;98675.91;4922765;28;103942;-69
2023/08/12 10:00:52;;;;;;;5.30;4.63;;;;;;;38.81;41.14;98666.88;4921308;28;103297;-69
2023/08/12 10:03:23;;;;;;;5.32;4.82;;;;;;;34.28;49.40;98674.94;4917095;28;103239;-68
2023/08/12 10:05:52;;;;;;;3.90;3.60;;;;;;;37.90;44.08;98669.69;4916221;28;102715;-68
2023/08/12 10:08:20;;;;;;;5.30;4.80;;;;;;;37.27;44.55;98664.00;4919479;28;103208;-68
2023/08/12 10:10:48;;;;;;;5.72;4.75;;;;;;;37.35;43.53;98652.38;4918991;28;104006;-68
2023/08/12 10:13:37;;;;;;;4.90;4.47;;;;;;;37.61;46.10;98658.59;4900910;28;104100;-68
2023/08/12 10:16:05;;;;;;;4.65;4.22;;;;;;;38.28;45.35;98669.63;4895323;28;102847;-69
2023/08/12 10:18:36;;;;;;;4.80;4.30;;;;;;;38.82;45.04;98655.53;4901372;28;104257;-68
2023/08/12 10:21:07;;;;;;;4.47;4.10;;;;;;;39.59;44.34;98666.38;4918662;28;103696;-60
2023/08/12 10:23:35;;;;;;;3.95;3.65;;;;;;;39.84;43.62;98657.72;4916507;28;104308;-68
2023/08/12 10:26:06;;;;;;;4.60;4.20;;;;;;;39.28;43.94;98664.06;4917819;28;102785;-68
2023/08/12 10:28:36;;;;;;;4.50;4.20;;;;;;;39.42;42.48;98662.22;4919174;28;102978;-68
2023/08/12 10:31:07;;;;;;;4.60;4.20;;;;;;;39.20;42.10;98663.88;4912781;28;104778;-68
2023/08/12 10:33:40;;;;;;;4.20;3.90;;;;;;;39.58;42.55;98664.75;4917567;28;103204;-68
2023/08/12 10:36:09;;;;;;;5.10;4.60;;;;;;;39.39;43.02;98668.34;4919334;28;103040;-59
2023/08/12 10:38:39;;;;;;;5.40;4.70;;;;;;;39.65;42.36;98666.03;4922361;28;104095;-68
2023/08/12 10:41:18;;;;;;;6.88;6.20;;;;;;;39.74;43.17;98666.19;4921239;28;104193;-68
2023/08/12 10:43:56;;;;;;;5.25;4.70;;;;;;;39.70;41.13;98663.19;4919803;28;103206;-60
2023/08/12 10:46:30;;;;;;;4.40;4.00;;;;;;;39.33;41.62;98657.63;4913921;28;103031;-68
2023/08/12 10:49:10;;;;;;;4.82;4.13;;;;;;;39.23;40.39;98668.84;4917141;28;102929;-67
2023/08/12 10:51:44;;;;;;;6.15;3.58;;;;;;;39.08;39.51;98667.06;4921491;28;104597;-59
2023/08/12 10:54:17;;;;;;;4.27;3.60;;;;;;;38.13;40.78;98661.47;4906726;28;103070;-59
2023/08/12 10:57:12;;;;;;;3.10;2.78;;;;;;;38.58;39.75;98651.94;4919042;28;102794;-59
2023/08/12 10:59:54;;;;;;;3.92;3.40;;;;;;;38.62;39.42;98646.66;4885532;28;104207;-59
2023/08/12 11:02:28;;;;;;;5.47;3.55;;;;;;;38.94;39.12;98638.53;4918004;28;104526;-68
2023/08/12 11:05:05;;;;;;;4.50;3.30;;;;;;;39.15;38.92;98639.94;4902594;28;104377;-60
2023/08/12 11:07:42;;;;;;;3.88;3.03;;;;;;;38.81;38.62;98640.09;4919128;28;102815;-59
2023/08/12 11:10:13;;;;;;;5.93;3.72;;;;;;;38.28;39.65;98643.97;4915803;28;103479;-59
2023/08/12 11:12:42;;;;;;;4.00;3.38;;;;;;;38.22;39.98;98639.59;4895737;28;104263;-59
2023/08/12 11:15:11;;;;;;;5.00;3.35;;;;;;;38.10;40.16;98644.69;4913888;28;103308;-68
2023/08/12 11:17:41;;;;;;;3.53;3.22;;;;;;;39.00;39.04;98637.38;4918104;28;103122;-68
2023/08/12 11:20:12;;;;;;;4.23;3.37;;;;;;;38.65;39.35;98638.63;4916163;28;104270;-63
2023/08/12 11:22:42;;;;;;;3.57;3.27;;;;;;;37.94;39.37;98638.50;4916091;28;103227;-59
2023/08/12 11:25:12;;;;;;;3.83;3.42;;;;;;;37.98;39.31;98620.25;4902392;28;103023;-59
2023/08/12 11:27:42;;;;;;;3.72;3.00;;;;;;;37.61;40.28;98611.75;4902092;28;102918;-58
2023/08/12 11:30:14;;;;;;;5.32;3.50;;;;;;;37.69;40.01;98613.88;4898734;28;103818;-67
2023/08/12 11:32:43;;;;;;;4.38;3.38;;;;;;;37.62;40.23;98589.41;4915075;28;103353;-58
2023/08/12 11:35:15;;;;;;;4.00;3.38;;;;;;;38.22;39.40;98587.19;4917464;28;103214;-68